createdAt,value
2018-11-14T00:00:59.507Z,87.39
2018-11-14T00:03:27.531Z,87.80
2018-11-14T00:05:55.608Z,87.62
2018-11-14T00:08:23.577Z,87.51
2018-11-14T00:10:51.746Z,87.67
2018-11-14T00:13:19.862Z,87.78
2018-11-14T00:15:47.922Z,87.82
2018-11-14T00:18:15.922Z,88.09
2018-11-14T00:20:43.941Z,87.96
2018-11-14T00:23:11.941Z,87.96
2018-11-14T00:25:39.946Z,88.23
2018-11-14T00:28:07.976Z,88.20
2018-11-14T00:30:35.949Z,87.76
2018-11-14T00:33:03.956Z,87.30
2018-11-14T00:35:31.977Z,87.54
2018-11-14T00:38:00.036Z,87.74
2018-11-14T00:40:28.025Z,87.33
2018-11-14T00:42:56.002Z,87.44
2018-11-14T00:45:23.981Z,87.28
2018-11-14T00:47:52.147Z,87.21
2018-11-14T00:50:20.706Z,87.51
2018-11-14T00:52:48.723Z,87.49
2018-11-14T00:55:18.891Z,87.08
2018-11-14T00:57:48.040Z,87.18
2018-11-14T01:00:19.016Z,86.82
2018-11-14T01:02:47.208Z,87.39
2018-11-14T01:05:16.236Z,87.37
2018-11-14T01:07:44.306Z,87.46
2018-11-14T01:10:14.168Z,87.48
2018-11-14T01:12:42.617Z,87.85
2018-11-14T01:15:13.091Z,87.83
2018-11-14T01:17:41.417Z,88.14
2018-11-14T01:20:11.457Z,88.05
2018-11-14T01:22:39.765Z,88.01
2018-11-14T01:25:09.036Z,87.91
2018-11-14T01:27:37.023Z,88.14
2018-11-14T01:30:08.350Z,87.94
2018-11-14T01:32:36.400Z,87.45
2018-11-14T01:35:05.213Z,87.33
2018-11-14T01:37:33.244Z,87.41
2018-11-14T01:40:01.165Z,87.15
2018-11-14T01:42:29.151Z,87.49
2018-11-14T01:45:13.860Z,87.58
2018-11-14T01:47:41.880Z,87.38
2018-11-14T01:50:10.337Z,87.67
2018-11-14T01:52:38.983Z,87.67
2018-11-14T01:55:08.314Z,87.80
2018-11-14T01:57:36.269Z,88.07
2018-11-14T02:00:05.599Z,87.56
2018-11-14T02:02:33.592Z,88.03
2018-11-14T02:05:01.526Z,87.43
2018-11-14T02:07:29.500Z,87.66
2018-11-14T02:09:57.485Z,87.96
2018-11-14T02:12:25.420Z,87.75
2018-11-14T02:14:53.379Z,87.95
2018-11-14T02:17:21.348Z,87.74
2018-11-14T02:19:49.331Z,87.79
2018-11-14T02:22:17.295Z,87.78
2018-11-14T02:24:45.357Z,87.51
2018-11-14T02:27:13.273Z,87.39
2018-11-14T02:29:41.291Z,87.26
2018-11-14T02:32:09.251Z,87.01
2018-11-14T02:34:37.241Z,87.07
2018-11-14T02:37:05.205Z,86.72
2018-11-14T02:39:33.215Z,86.98
2018-11-14T02:42:01.448Z,87.31
2018-11-14T02:44:29.435Z,87.33
2018-11-14T02:46:57.437Z,87.38
2018-11-14T02:49:25.427Z,87.26
2018-11-14T02:51:53.374Z,87.55
2018-11-14T02:54:21.338Z,87.63
2018-11-14T02:56:49.271Z,87.90
2018-11-14T02:59:17.223Z,87.68
2018-11-14T03:01:45.161Z,87.85
2018-11-14T03:04:13.157Z,87.55
2018-11-14T03:06:41.122Z,87.39
2018-11-14T03:09:09.157Z,87.65
2018-11-14T03:11:37.167Z,87.41
2018-11-14T03:14:05.898Z,87.10
2018-11-14T03:16:33.876Z,87.21
2018-11-14T03:19:01.787Z,86.99
2018-11-14T03:21:29.744Z,87.17
2018-11-14T03:23:57.700Z,87.22
2018-11-14T03:26:25.561Z,87.39
2018-11-14T03:28:53.504Z,87.58
2018-11-14T03:31:21.344Z,87.14
2018-11-14T03:33:49.201Z,86.93
2018-11-14T03:36:18.188Z,86.68
2018-11-14T03:38:46.395Z,86.45
2018-11-14T03:41:14.255Z,86.58
2018-11-14T03:43:42.079Z,86.41
2018-11-14T03:46:09.944Z,86.36
2018-11-14T03:48:37.750Z,86.51
2018-11-14T03:51:05.720Z,86.00
2018-11-14T03:53:33.622Z,86.40
2018-11-14T03:56:01.537Z,85.66
2018-11-14T03:58:29.422Z,85.57
2018-11-14T04:00:57.312Z,85.48
2018-11-14T04:03:25.146Z,85.47
2018-11-14T04:05:57.592Z,85.84
2018-11-14T04:08:25.687Z,86.10
2018-11-14T04:10:53.547Z,85.62
2018-11-14T04:13:21.445Z,85.64
2018-11-14T04:15:49.457Z,85.46
2018-11-14T04:18:17.303Z,85.58
2018-11-14T04:20:45.190Z,85.77
2018-11-14T04:23:13.038Z,85.43
2018-11-14T04:25:41.136Z,85.49
2018-11-14T04:28:09.181Z,85.85
2018-11-14T04:30:37.242Z,85.54
2018-11-14T04:33:05.539Z,85.81
2018-11-14T04:35:33.602Z,85.56
2018-11-14T04:38:01.635Z,85.37
2018-11-14T04:40:29.706Z,85.26
2018-11-14T04:42:57.650Z,85.41
2018-11-14T04:45:26.526Z,84.81
2018-11-14T04:47:54.774Z,85.09
2018-11-14T04:50:24.757Z,84.80
2018-11-14T04:52:53.024Z,84.77
2018-11-14T04:55:22.759Z,84.91
2018-11-14T04:57:51.127Z,84.46
2018-11-14T05:00:20.374Z,84.62
2018-11-14T05:02:49.027Z,85.00
2018-11-14T05:05:18.642Z,85.04
2018-11-14T05:07:47.135Z,85.15
2018-11-14T05:10:17.542Z,85.62
2018-11-14T05:12:46.259Z,85.23
2018-11-14T05:15:25.264Z,86.51
2018-11-14T05:17:53.897Z,86.13
2018-11-14T05:20:22.716Z,86.14
2018-11-14T05:22:51.424Z,86.54
2018-11-14T05:25:20.005Z,86.11
2018-11-14T05:27:48.058Z,86.01
2018-11-14T05:30:18.576Z,86.65
2018-11-14T05:32:48.023Z,86.66
2018-11-14T05:35:16.617Z,86.27
2018-11-14T05:37:45.416Z,86.18
2018-11-14T05:40:16.174Z,86.07
2018-11-14T05:42:45.340Z,86.44
2018-11-14T05:45:17.859Z,86.58
2018-11-14T05:47:46.598Z,86.41
2018-11-14T05:50:17.668Z,86.47
2018-11-14T05:52:46.602Z,86.61
2018-11-14T05:55:15.599Z,87.35
2018-11-14T05:57:44.141Z,86.63
2018-11-14T06:00:16.306Z,87.16
2018-11-14T06:02:46.257Z,87.46
2018-11-14T06:05:14.783Z,87.39
2018-11-14T06:07:43.455Z,87.28
2018-11-14T06:10:12.820Z,87.54
2018-11-14T06:12:42.139Z,87.38
2018-11-14T06:15:13.680Z,87.25
2018-11-14T06:17:43.164Z,87.27
2018-11-14T06:20:13.618Z,87.48
2018-11-14T06:22:43.000Z,87.44
2018-11-14T06:25:21.455Z,87.39
2018-11-14T06:27:51.073Z,87.33
2018-11-14T06:30:20.013Z,87.51
2018-11-14T06:32:48.807Z,87.70
2018-11-14T06:35:18.082Z,87.48
2018-11-14T06:37:47.187Z,87.16
2018-11-14T06:40:15.656Z,87.37
2018-11-14T06:42:44.752Z,87.34
2018-11-14T06:45:15.342Z,87.32
2018-11-14T06:47:46.260Z,87.33
2018-11-14T06:50:15.163Z,87.08
2018-11-14T06:52:44.384Z,87.09
2018-11-14T06:55:15.107Z,87.02
2018-11-14T06:57:43.743Z,86.66
2018-11-14T07:00:16.082Z,86.58
2018-11-14T07:02:45.642Z,86.61
2018-11-14T07:05:15.563Z,86.86
2018-11-14T07:07:44.655Z,86.37
2018-11-14T07:10:14.929Z,86.03
2018-11-14T07:12:43.552Z,86.24
2018-11-14T07:15:14.068Z,84.86
2018-11-14T07:17:43.208Z,82.64
2018-11-14T07:20:20.046Z,80.83
2018-11-14T07:22:48.628Z,79.19
2018-11-14T07:25:17.143Z,77.52
2018-11-14T07:27:45.776Z,77.59
2018-11-14T07:30:17.335Z,75.96
2018-11-14T07:32:47.337Z,76.33
2018-11-14T07:35:16.430Z,75.59
2018-11-14T07:38:52.321Z,75.36
2018-11-14T07:41:29.850Z,76.16
2018-11-14T07:43:58.446Z,77.14
2018-11-14T07:46:28.377Z,77.19
2018-11-14T07:48:57.040Z,78.21
2018-11-14T07:51:25.644Z,78.45
2018-11-14T07:53:54.216Z,78.83
2018-11-14T07:56:22.649Z,78.84
2018-11-14T07:58:51.331Z,78.61
2018-11-14T08:01:19.811Z,79.03
2018-11-14T08:03:48.807Z,78.92
2018-11-14T08:06:17.270Z,79.21
2018-11-14T08:08:46.211Z,78.73
2018-11-14T08:11:14.711Z,79.28
2018-11-14T08:13:44.986Z,79.15
2018-11-14T08:16:14.095Z,78.69
2018-11-14T08:18:42.877Z,78.63
2018-11-14T08:21:11.478Z,79.28
2018-11-14T08:23:40.009Z,79.22
2018-11-14T08:26:08.637Z,78.98
2018-11-14T08:28:37.072Z,79.12
2018-11-14T08:31:05.532Z,79.39
2018-11-14T08:33:33.961Z,78.83
2018-11-14T08:36:02.597Z,79.50
2018-11-14T08:38:31.081Z,78.91
2018-11-14T08:40:59.898Z,78.74
2018-11-14T08:43:28.375Z,78.73
2018-11-14T08:45:57.016Z,78.82
2018-11-14T08:48:25.668Z,78.25
2018-11-14T08:50:54.345Z,77.78
2018-11-14T08:53:22.895Z,77.29
2018-11-14T08:55:51.381Z,77.36
2018-11-14T08:58:19.777Z,77.32
2018-11-14T09:00:48.193Z,77.24
2018-11-14T09:03:16.613Z,76.39
2018-11-14T09:05:45.113Z,76.40
2018-11-14T09:08:13.554Z,76.52
2018-11-14T09:10:42.054Z,76.04
2018-11-14T09:13:15.359Z,76.07
2018-11-14T09:15:44.177Z,75.60
2018-11-14T09:18:12.890Z,75.58
2018-11-14T09:20:41.474Z,76.57
2018-11-14T09:23:10.032Z,75.82
2018-11-14T09:25:38.516Z,75.71
2018-11-14T09:28:07.016Z,75.07
2018-11-14T09:30:35.420Z,75.48
2018-11-14T09:33:03.861Z,75.09
2018-11-14T09:35:32.334Z,75.49
2018-11-14T09:38:01.397Z,75.41
2018-11-14T09:40:30.481Z,74.57
2018-11-14T09:42:58.925Z,73.98
2018-11-14T09:45:29.474Z,74.11
2018-11-14T09:47:58.193Z,73.27
2018-11-14T09:50:28.873Z,74.49
2018-11-14T09:52:58.833Z,73.78
2018-11-14T09:55:27.292Z,74.05
2018-11-14T09:57:55.743Z,73.75
2018-11-14T10:00:25.693Z,73.41
2018-11-14T10:02:55.825Z,73.03
2018-11-14T10:05:24.831Z,72.58
2018-11-14T10:07:53.402Z,73.20
2018-11-14T10:10:22.603Z,72.83
2018-11-14T10:12:51.463Z,73.68
2018-11-14T10:15:23.193Z,72.01
2018-11-14T10:17:51.908Z,72.57
2018-11-14T10:20:21.685Z,72.86
2018-11-14T10:22:50.466Z,72.18
2018-11-14T10:25:19.143Z,71.67
2018-11-14T10:27:48.229Z,72.05
2018-11-14T10:30:18.779Z,71.02
2018-11-14T10:32:47.849Z,71.82
2018-11-14T10:35:16.276Z,71.46
2018-11-14T10:37:44.957Z,71.60
2018-11-14T10:40:18.885Z,70.54
2018-11-14T10:42:47.608Z,70.74
2018-11-14T10:45:17.464Z,70.73
2018-11-14T10:47:45.996Z,70.17
2018-11-14T10:50:17.047Z,69.89
2018-11-14T10:52:45.586Z,70.51
2018-11-14T10:55:14.965Z,70.28
2018-11-14T10:57:43.543Z,70.46
2018-11-14T11:00:19.337Z,70.03
2018-11-14T11:02:53.347Z,69.56
2018-11-14T11:06:30.894Z,70.20
2018-11-14T11:09:04.683Z,68.37
2018-11-14T11:11:38.504Z,67.79
2018-11-14T11:14:12.265Z,68.45
2018-11-14T11:16:47.994Z,67.15
2018-11-14T11:19:18.117Z,66.60
2018-11-14T11:21:47.047Z,66.48
2018-11-14T11:24:17.048Z,66.93
2018-11-14T11:26:45.551Z,67.13
2018-11-14T11:29:14.089Z,67.23
2018-11-14T11:31:42.570Z,67.41
2018-11-14T11:34:11.827Z,66.53
2018-11-14T11:36:40.687Z,66.87
2018-11-14T11:39:14.266Z,67.62
2018-11-14T11:41:43.262Z,66.74
2018-11-14T11:44:12.400Z,66.68
2018-11-14T11:46:41.905Z,67.68
2018-11-14T11:49:11.025Z,67.15
2018-11-14T11:51:39.678Z,66.28
2018-11-14T11:54:08.703Z,67.14
2018-11-14T11:56:37.670Z,66.87
2018-11-14T11:59:07.092Z,66.33
2018-11-14T12:01:35.703Z,66.78
2018-11-14T12:04:04.541Z,65.87
2018-11-14T12:06:32.877Z,66.96
2018-11-14T12:09:01.488Z,66.18
2018-11-14T12:11:29.968Z,66.77
2018-11-14T12:13:58.650Z,65.83
2018-11-14T12:16:27.226Z,65.91
2018-11-14T12:18:56.341Z,64.83
2018-11-14T12:21:24.786Z,64.24
2018-11-14T12:23:53.219Z,64.26
2018-11-14T12:26:21.883Z,64.72
2018-11-14T12:28:50.321Z,64.24
2018-11-14T12:31:19.204Z,65.00
2018-11-14T12:33:48.166Z,64.33
2018-11-14T12:36:25.169Z,64.40
2018-11-14T12:38:54.144Z,64.69
2018-11-14T12:41:27.461Z,64.08
2018-11-14T12:43:56.280Z,63.78
2018-11-14T12:46:25.121Z,64.19
2018-11-14T12:48:53.621Z,64.04
2018-11-14T12:51:21.969Z,63.56
2018-11-14T12:53:50.441Z,63.62
2018-11-14T12:56:19.023Z,63.87
2018-11-14T12:58:47.526Z,65.01
2018-11-14T13:01:16.081Z,64.24
2018-11-14T13:03:44.462Z,63.47
2018-11-14T13:09:10.172Z,64.19
2018-11-14T13:11:40.910Z,64.55
2018-11-14T13:14:11.210Z,64.01
2018-11-14T13:16:40.673Z,63.69
2018-11-14T13:19:13.680Z,64.56
2018-11-14T13:21:47.361Z,64.52
2018-11-14T13:24:20.160Z,64.59
2018-11-14T13:26:50.741Z,63.34
2018-11-14T13:29:24.583Z,62.67
2018-11-14T13:31:56.051Z,63.54
2018-11-14T13:34:27.754Z,64.10
2018-11-14T13:37:01.466Z,63.37
2018-11-14T13:39:41.307Z,64.17
2018-11-14T13:42:14.641Z,64.33
2018-11-14T13:44:49.226Z,63.45
2018-11-14T13:47:22.051Z,64.93
2018-11-14T13:49:55.338Z,64.36
2018-11-14T13:52:29.766Z,65.12
2018-11-14T13:55:08.124Z,64.29
2018-11-14T13:57:36.960Z,64.29
2018-11-14T14:00:07.303Z,65.17
2018-11-14T14:02:35.669Z,64.69
2018-11-14T14:05:04.448Z,63.64
2018-11-14T14:07:33.091Z,64.31
2018-11-14T14:10:01.703Z,64.62
2018-11-14T14:12:30.327Z,64.20
2018-11-14T14:14:58.967Z,64.62
2018-11-14T14:17:27.641Z,64.78
2018-11-14T14:19:57.504Z,65.12
2018-11-14T14:22:26.230Z,64.84
2018-11-14T14:24:54.683Z,65.26
2018-11-14T14:27:23.321Z,63.98
2018-11-14T14:29:53.520Z,63.73
2018-11-14T14:32:23.210Z,63.75
2018-11-14T14:34:51.702Z,64.43
2018-11-14T14:37:20.598Z,64.61
2018-11-14T14:39:50.325Z,65.64
2018-11-14T14:42:18.823Z,65.57
2018-11-14T14:44:47.345Z,65.39
2018-11-14T14:47:17.710Z,65.15
2018-11-14T14:49:46.384Z,65.32
2018-11-14T14:52:18.103Z,66.37
2018-11-14T14:54:54.790Z,67.39
2018-11-14T14:57:23.785Z,67.74
2018-11-14T15:00:21.827Z,68.57
2018-11-14T15:02:50.863Z,69.93
2018-11-14T15:05:28.188Z,70.73
2018-11-14T15:07:56.823Z,72.50
2018-11-14T15:10:25.282Z,74.45
2018-11-14T15:12:54.348Z,75.48
2018-11-14T15:15:22.898Z,75.77
2018-11-14T15:17:58.387Z,76.55
2018-11-14T15:20:27.694Z,76.52
2018-11-14T15:22:56.244Z,77.26
2018-11-14T15:25:25.467Z,76.75
2018-11-14T15:27:56.149Z,75.80
2018-11-14T15:30:38.923Z,75.49
2018-11-14T15:33:07.733Z,75.40
2018-11-14T15:35:36.544Z,76.51
2018-11-14T15:38:05.200Z,77.88
2018-11-14T15:40:43.975Z,78.79
2018-11-14T15:43:13.108Z,79.05
2018-11-14T15:45:42.127Z,79.78
2018-11-14T15:48:10.621Z,79.63
2018-11-14T15:50:39.929Z,78.56
2018-11-14T15:53:10.222Z,78.52
2018-11-14T15:55:39.086Z,78.66
2018-11-14T15:58:07.986Z,78.38
2018-11-14T16:00:36.789Z,79.21
2018-11-14T16:03:06.387Z,78.53
2018-11-14T16:05:37.244Z,78.50
2018-11-14T16:08:06.122Z,79.28
2018-11-14T16:10:35.920Z,79.86
2018-11-14T16:13:05.891Z,80.16
2018-11-14T16:15:36.061Z,81.08
2018-11-14T16:18:05.167Z,81.35
2018-11-14T16:20:34.610Z,81.90
2018-11-14T16:23:04.069Z,81.96
2018-11-14T16:25:32.935Z,82.09
2018-11-14T16:28:02.204Z,82.34
2018-11-14T16:30:32.135Z,81.51
2018-11-14T16:33:03.142Z,81.43
2018-11-14T16:35:32.003Z,81.40
2018-11-14T16:38:00.801Z,81.69
2018-11-14T16:40:31.008Z,81.37
2018-11-14T16:43:00.849Z,80.91
2018-11-14T16:45:29.488Z,81.02
2018-11-14T16:47:58.260Z,81.30
2018-11-14T16:50:27.331Z,82.10
2018-11-14T16:52:56.309Z,82.94
2018-11-14T16:55:25.259Z,83.69
2018-11-14T16:57:55.756Z,84.39
2018-11-14T17:00:28.703Z,85.37
2018-11-14T17:02:57.322Z,85.93
2018-11-14T17:05:26.965Z,86.51
2018-11-14T17:07:55.490Z,86.73
2018-11-14T17:10:24.389Z,87.20
2018-11-14T17:12:55.462Z,88.09
2018-11-14T17:15:25.369Z,87.67
2018-11-14T17:17:54.989Z,88.56
2018-11-14T17:20:23.905Z,88.19
2018-11-14T17:22:53.561Z,88.31
2018-11-14T17:25:22.341Z,88.56
2018-11-14T17:27:51.074Z,88.67
2018-11-14T17:30:21.284Z,88.49
2018-11-14T17:32:49.944Z,88.53
2018-11-14T17:35:18.803Z,88.78
2018-11-14T17:37:47.668Z,88.98
2018-11-14T17:40:20.640Z,89.02
2018-11-14T17:42:50.226Z,88.48
2018-11-14T17:45:21.181Z,88.62
2018-11-14T17:47:50.879Z,89.11
2018-11-14T17:50:23.475Z,88.79
2018-11-14T17:52:52.870Z,88.34
2018-11-14T17:55:22.641Z,88.74
2018-11-14T17:57:51.541Z,88.60
2018-11-14T18:00:21.607Z,88.66
2018-11-14T18:02:50.342Z,88.59
2018-11-14T18:05:21.132Z,88.52
2018-11-14T18:07:50.747Z,88.71
2018-11-14T18:10:22.602Z,88.76
2018-11-14T18:12:52.161Z,88.28
2018-11-14T18:15:21.151Z,88.54
2018-11-14T18:17:50.805Z,88.75
2018-11-14T18:20:20.969Z,88.86
2018-11-14T18:22:50.268Z,88.70
2018-11-14T18:25:18.966Z,88.83
2018-11-14T18:27:47.702Z,88.80
2018-11-14T18:30:19.630Z,88.44
2018-11-14T18:32:56.767Z,88.27
2018-11-14T18:35:26.207Z,88.40
2018-11-14T18:37:55.960Z,88.17
2018-11-14T18:40:26.500Z,88.48
2018-11-14T18:42:55.441Z,88.42
2018-11-14T18:45:27.548Z,88.13
2018-11-14T18:47:57.100Z,87.84
2018-11-14T18:50:26.086Z,86.29
2018-11-14T18:52:54.659Z,87.60
2018-11-14T18:55:24.920Z,88.04
2018-11-14T18:57:53.487Z,86.79
2018-11-14T19:00:24.861Z,88.50
2018-11-14T19:02:53.549Z,89.24
2018-11-14T19:05:22.263Z,88.47
2018-11-14T19:07:50.912Z,88.54
2018-11-14T19:10:21.545Z,88.37
2018-11-14T19:12:50.799Z,87.49
2018-11-14T19:15:23.041Z,86.78
2018-11-14T19:17:52.043Z,86.58
2018-11-14T19:20:22.385Z,85.97
2018-11-14T19:22:51.240Z,85.31
2018-11-14T19:25:22.142Z,84.80
2018-11-14T19:27:50.795Z,84.45
2018-11-14T19:30:22.686Z,83.79
2018-11-14T19:32:52.345Z,84.31
2018-11-14T19:35:21.384Z,83.95
2018-11-14T19:37:51.119Z,83.97
2018-11-14T19:40:22.729Z,84.27
2018-11-14T19:42:53.647Z,84.17
2018-11-14T19:45:24.758Z,84.39
2018-11-14T19:47:53.698Z,84.07
2018-11-14T19:50:23.259Z,84.13
2018-11-14T19:52:51.916Z,83.95
2018-11-14T19:55:21.948Z,84.10
2018-11-14T19:57:51.979Z,84.01
2018-11-14T20:00:24.201Z,84.47
2018-11-14T20:02:53.820Z,84.39
2018-11-14T20:05:22.823Z,84.28
2018-11-14T20:07:51.776Z,83.43
2018-11-14T20:10:21.672Z,82.63
2018-11-14T20:12:51.080Z,82.33
2018-11-14T20:15:21.048Z,82.35
2018-11-14T20:17:53.408Z,82.09
2018-11-14T20:20:23.376Z,82.61
2018-11-14T20:22:51.936Z,82.73
2018-11-14T20:25:20.545Z,83.42
2018-11-14T20:27:49.135Z,83.28
2018-11-14T20:30:20.082Z,83.62
2018-11-14T20:32:49.464Z,83.59
2018-11-14T20:35:18.977Z,83.96
2018-11-14T20:37:47.636Z,83.87
2018-11-14T20:40:17.483Z,84.40
2018-11-14T20:42:46.801Z,84.63
2018-11-14T20:45:17.216Z,84.91
2018-11-14T20:47:45.796Z,84.90
2018-11-14T20:50:18.381Z,84.81
2018-11-14T20:52:48.105Z,84.67
2018-11-14T20:55:16.957Z,84.72
2018-11-14T20:57:45.596Z,84.88
2018-11-14T21:00:18.844Z,84.89
2018-11-14T21:02:47.954Z,84.66
2018-11-14T21:05:16.635Z,85.21
2018-11-14T21:07:45.573Z,84.96
2018-11-14T21:10:15.412Z,85.52
2018-11-14T21:12:44.886Z,85.08
2018-11-14T21:15:17.065Z,84.89
2018-11-14T21:17:46.376Z,85.53
2018-11-14T21:20:14.956Z,85.55
2018-11-14T21:22:44.011Z,85.67
2018-11-14T21:25:13.749Z,85.61
2018-11-14T21:27:43.375Z,86.18
2018-11-14T21:30:15.003Z,86.05
2018-11-14T21:32:43.754Z,85.99
2018-11-14T21:35:16.447Z,86.56
2018-11-14T21:37:46.093Z,86.54
2018-11-14T21:40:14.667Z,87.04
2018-11-14T21:42:43.170Z,87.06
2018-11-14T21:45:13.831Z,87.51
2018-11-14T21:47:47.572Z,87.32
2018-11-14T21:50:17.003Z,87.92
2018-11-14T21:52:45.555Z,87.80
2018-11-14T21:55:13.966Z,87.99
2018-11-14T21:57:42.472Z,88.27
2018-11-14T22:00:14.014Z,88.14
2018-11-14T22:02:43.905Z,88.66
2018-11-14T22:05:12.286Z,88.94
2018-11-14T22:07:40.500Z,89.20
2018-11-14T22:10:11.543Z,88.38
2018-11-14T22:12:40.228Z,89.41
2018-11-14T22:15:09.197Z,89.50
2018-11-14T22:17:38.063Z,89.84
2018-11-14T22:20:07.899Z,89.84
2018-11-14T22:22:35.935Z,90.63
2018-11-14T22:25:04.263Z,90.28
2018-11-14T22:27:32.373Z,90.19
2018-11-14T22:30:00.492Z,90.71
2018-11-14T22:32:28.949Z,90.04
2018-11-14T22:34:57.370Z,90.32
2018-11-14T22:37:25.413Z,90.40
2018-11-14T22:39:53.702Z,90.84
2018-11-14T22:42:22.772Z,90.68
2018-11-14T22:44:51.413Z,91.12
2018-11-14T22:47:19.662Z,91.41
2018-11-14T22:49:48.448Z,90.75
2018-11-14T22:52:16.879Z,91.13
2018-11-14T22:54:45.021Z,91.27
2018-11-14T22:57:13.067Z,91.10
2018-11-14T22:59:41.423Z,91.91
2018-11-14T23:02:09.966Z,91.30
2018-11-14T23:04:38.040Z,91.62
2018-11-14T23:07:06.267Z,91.89
2018-11-14T23:09:34.365Z,91.98
2018-11-14T23:12:02.469Z,92.06
2018-11-14T23:14:31.035Z,91.84
2018-11-14T23:16:59.208Z,92.02
2018-11-14T23:19:27.776Z,91.78
2018-11-14T23:21:56.007Z,92.06
2018-11-14T23:24:24.057Z,92.46
2018-11-14T23:26:52.154Z,92.66
2018-11-14T23:29:20.295Z,91.67
2018-11-14T23:31:48.328Z,92.40
2018-11-14T23:34:16.462Z,92.44
2018-11-14T23:36:44.512Z,92.42
2018-11-14T23:39:13.682Z,92.45
2018-11-14T23:41:41.728Z,92.61
2018-11-14T23:44:10.136Z,92.78
2018-11-14T23:46:38.590Z,92.06
2018-11-14T23:49:06.833Z,92.52
2018-11-14T23:51:35.153Z,92.58
2018-11-14T23:54:03.169Z,92.84
2018-11-14T23:56:31.227Z,92.47
2018-11-14T23:58:59.238Z,92.40
